createdAt,value
2019-03-01T00:00:33.651Z,1021.31
2019-03-01T00:01:14.427Z,1021.34
2019-03-01T00:01:55.183Z,1021.29
2019-03-01T00:02:35.788Z,1021.31
2019-03-01T00:03:16.375Z,1021.32
2019-03-01T00:03:56.976Z,1021.31
2019-03-01T00:04:37.559Z,1021.28
2019-03-01T00:05:18.207Z,1021.33
2019-03-01T00:05:58.848Z,1021.3
2019-03-01T00:06:39.455Z,1021.29
2019-03-01T00:07:20.056Z,1021.32
2019-03-01T00:08:00.655Z,1021.3
2019-03-01T00:08:41.598Z,1021.31
2019-03-01T00:09:24.499Z,1021.31
2019-03-01T00:10:07.815Z,1021.33
2019-03-01T00:10:48.569Z,1021.29
2019-03-01T00:11:33.201Z,1021.31
2019-03-01T00:12:13.812Z,1021.27
2019-03-01T00:12:54.531Z,1021.27
2019-03-01T00:14:49.911Z,1021.3
2019-03-01T00:15:30.648Z,1021.28
2019-03-01T00:16:11.348Z,1021.27
2019-03-01T00:16:51.971Z,1021.31
2019-03-01T00:17:32.899Z,1021.27
2019-03-01T00:18:13.562Z,1021.31
2019-03-01T00:18:54.201Z,1021.26
2019-03-01T00:19:34.853Z,1021.3
2019-03-01T00:20:15.758Z,1021.3
2019-03-01T00:20:56.427Z,1021.28
2019-03-01T00:21:37.053Z,1021.28
2019-03-01T00:22:17.667Z,1021.29
2019-03-01T00:22:58.302Z,1021.26
2019-03-01T00:23:38.961Z,1021.26
2019-03-01T00:24:19.548Z,1021.25
2019-03-01T00:25:00.177Z,1021.25
2019-03-01T00:25:40.789Z,1021.26
2019-03-01T00:26:21.387Z,1021.28
2019-03-01T00:27:01.991Z,1021.22
2019-03-01T00:27:42.632Z,1021.21
2019-03-01T00:28:23.313Z,1021.21
2019-03-01T00:29:03.950Z,1021.2
2019-03-01T00:29:44.570Z,1021.22
2019-03-01T00:30:25.164Z,1021.2
2019-03-01T00:31:05.830Z,1021.19
2019-03-01T00:31:46.474Z,1021.16
2019-03-01T00:32:27.245Z,1021.21
2019-03-01T00:33:07.860Z,1021.23
2019-03-01T00:33:48.518Z,1021.18
2019-03-01T00:34:29.131Z,1021.17
2019-03-01T00:35:09.774Z,1021.16
2019-03-01T00:35:50.365Z,1021.19
2019-03-01T00:36:30.955Z,1021.19
2019-03-01T00:37:11.578Z,1021.17
2019-03-01T00:37:52.219Z,1021.19
2019-03-01T00:38:32.814Z,1021.2
2019-03-01T00:39:13.430Z,1021.19
2019-03-01T00:39:54.090Z,1021.19
2019-03-01T00:40:34.729Z,1021.19
2019-03-01T00:41:15.345Z,1021.14
2019-03-01T00:41:56.002Z,1021.17
2019-03-01T00:42:36.703Z,1021.16
2019-03-01T00:43:17.297Z,1021.19
2019-03-01T00:43:57.915Z,1021.17
2019-03-01T00:44:38.566Z,1021.17
2019-03-01T00:45:19.229Z,1021.17
2019-03-01T00:45:59.926Z,1021.15
2019-03-01T00:46:40.594Z,1021.17
2019-03-01T00:47:21.240Z,1021.16
2019-03-01T00:48:01.860Z,1021.16
2019-03-01T00:48:42.490Z,1021.12
2019-03-01T00:49:23.087Z,1021.14
2019-03-01T00:50:03.714Z,1021.15
2019-03-01T00:50:44.319Z,1021.14
2019-03-01T00:51:24.925Z,1021.15
2019-03-01T00:52:05.569Z,1021.13
2019-03-01T00:52:46.218Z,1021.15
2019-03-01T00:53:26.930Z,1021.09
2019-03-01T00:54:07.491Z,1021.12
2019-03-01T00:54:48.081Z,1021.13
2019-03-01T00:55:28.699Z,1021.1
2019-03-01T00:56:09.317Z,1021.1
2019-03-01T00:56:49.967Z,1021.07
2019-03-01T00:57:30.563Z,1021.07
2019-03-01T00:58:11.158Z,1021.1
2019-03-01T00:58:51.786Z,1021.07
2019-03-01T00:59:32.412Z,1021.04
2019-03-01T01:00:13.048Z,1021.04
2019-03-01T01:00:53.673Z,1021.04
2019-03-01T01:01:34.375Z,1020.99
2019-03-01T01:02:14.976Z,1021.03
2019-03-01T01:02:55.583Z,1021.04
2019-03-01T01:03:36.198Z,1020.99
2019-03-01T01:04:16.804Z,1021
2019-03-01T01:04:57.433Z,1021.03
2019-03-01T01:05:38.040Z,1021.04
2019-03-01T01:06:18.639Z,1021.04
2019-03-01T01:06:59.282Z,1021.04
2019-03-01T01:07:39.904Z,1021.05
2019-03-01T01:08:20.510Z,1021.04
2019-03-01T01:09:01.107Z,1021.05
2019-03-01T01:09:41.712Z,1021.03
2019-03-01T01:10:22.324Z,1021.05
2019-03-01T01:11:02.986Z,1021.06
2019-03-01T01:11:43.589Z,1021.07
2019-03-01T01:12:24.230Z,1021.06
2019-03-01T01:13:04.818Z,1021.08
2019-03-01T01:13:45.443Z,1021.06
2019-03-01T01:14:26.040Z,1021.04
2019-03-01T01:15:06.644Z,1021.03
2019-03-01T01:15:47.246Z,1021.02
2019-03-01T01:16:27.827Z,1021.04
2019-03-01T01:17:08.420Z,1021.06
2019-03-01T01:17:49.014Z,1021.07
2019-03-01T01:18:29.608Z,1021.09
2019-03-01T01:19:10.283Z,1021.08
2019-03-01T01:19:50.860Z,1021.07
2019-03-01T01:20:31.451Z,1021.1
2019-03-01T01:21:12.057Z,1021.07
2019-03-01T01:21:52.675Z,1021.1
2019-03-01T01:22:33.257Z,1021.11
2019-03-01T01:23:13.866Z,1021.08
2019-03-01T01:23:54.490Z,1021.11
2019-03-01T01:24:35.154Z,1021.1
2019-03-01T01:25:15.879Z,1021.09
2019-03-01T01:25:56.516Z,1021.11
2019-03-01T01:26:37.118Z,1021.15
2019-03-01T01:27:17.752Z,1021.12
2019-03-01T01:27:58.355Z,1021.13
2019-03-01T01:28:38.960Z,1021.13
2019-03-01T01:29:19.575Z,1021.15
2019-03-01T01:30:00.311Z,1021.14
2019-03-01T01:30:40.786Z,1021.17
2019-03-01T01:31:21.401Z,1021.18
2019-03-01T01:32:02.022Z,1021.18
2019-03-01T01:32:42.667Z,1021.18
2019-03-01T01:33:23.374Z,1021.18
2019-03-01T01:34:03.990Z,1021.2
2019-03-01T01:34:44.625Z,1021.2
2019-03-01T01:35:25.262Z,1021.17
2019-03-01T01:36:05.876Z,1021.19
2019-03-01T01:36:46.474Z,1021.22
2019-03-01T01:37:27.109Z,1021.16
2019-03-01T01:38:07.758Z,1021.19
2019-03-01T01:38:48.331Z,1021.18
2019-03-01T01:39:28.952Z,1021.19
2019-03-01T01:40:09.571Z,1021.22
2019-03-01T01:40:50.261Z,1021.16
2019-03-01T01:41:30.918Z,1021.18
2019-03-01T01:42:11.598Z,1021.17
2019-03-01T01:42:52.209Z,1021.17
2019-03-01T01:43:32.858Z,1021.16
2019-03-01T01:44:13.463Z,1021.15
2019-03-01T01:44:54.139Z,1021.15
2019-03-01T01:45:34.809Z,1021.13
2019-03-01T01:46:15.428Z,1021.11
2019-03-01T01:46:56.082Z,1021.09
2019-03-01T01:47:36.726Z,1021.09
2019-03-01T01:48:17.412Z,1021.12
2019-03-01T01:48:57.989Z,1021.08
2019-03-01T01:49:38.603Z,1021.06
2019-03-01T01:50:19.227Z,1021.06
2019-03-01T01:50:59.936Z,1021.07
2019-03-01T01:51:40.574Z,1021.05
2019-03-01T01:52:21.223Z,1021.03
2019-03-01T01:53:01.856Z,1021.1
2019-03-01T01:53:42.434Z,1021.08
2019-03-01T01:54:23.074Z,1021.07
2019-03-01T01:55:03.682Z,1021.05
2019-03-01T01:55:44.300Z,1021.02
2019-03-01T01:56:24.932Z,1021.05
2019-03-01T01:57:05.690Z,1021.02
2019-03-01T01:57:46.382Z,1021.03
2019-03-01T01:58:26.988Z,1021.04
2019-03-01T01:59:07.700Z,1021.06
2019-03-01T01:59:48.287Z,1021.02
2019-03-01T02:00:28.930Z,1021.01
2019-03-01T02:01:09.542Z,1020.97
2019-03-01T02:01:50.158Z,1021.01
2019-03-01T02:02:30.808Z,1020.97
2019-03-01T02:03:11.412Z,1020.97
2019-03-01T02:03:52.062Z,1020.97
2019-03-01T02:04:32.702Z,1020.97
2019-03-01T02:05:13.371Z,1020.96
2019-03-01T02:05:53.994Z,1020.93
2019-03-01T02:06:34.564Z,1020.92
2019-03-01T02:07:15.266Z,1020.95
2019-03-01T02:07:55.876Z,1020.9
2019-03-01T02:08:36.496Z,1020.88
2019-03-01T02:09:17.142Z,1020.92
2019-03-01T02:09:57.751Z,1020.92
2019-03-01T02:10:38.390Z,1020.89
2019-03-01T02:11:18.975Z,1020.87
2019-03-01T02:11:59.577Z,1020.88
2019-03-01T02:12:40.375Z,1020.85
2019-03-01T02:13:20.952Z,1020.86
2019-03-01T02:14:01.573Z,1020.81
2019-03-01T02:14:42.168Z,1020.83
2019-03-01T02:15:22.838Z,1020.85
2019-03-01T02:16:03.438Z,1020.83
2019-03-01T02:16:44.051Z,1020.81
2019-03-01T02:17:24.643Z,1020.84
2019-03-01T02:18:05.250Z,1020.83
2019-03-01T02:18:45.852Z,1020.8
2019-03-01T02:19:26.447Z,1020.78
2019-03-01T02:20:07.048Z,1020.78
2019-03-01T02:20:47.630Z,1020.77
2019-03-01T02:21:28.226Z,1020.78
2019-03-01T02:22:08.814Z,1020.78
2019-03-01T02:22:49.413Z,1020.76
2019-03-01T02:23:30.018Z,1020.77
2019-03-01T02:24:10.598Z,1020.75
2019-03-01T02:24:51.189Z,1020.76
2019-03-01T02:25:31.773Z,1020.78
2019-03-01T02:26:12.382Z,1020.7
2019-03-01T02:26:53.008Z,1020.72
2019-03-01T02:27:33.594Z,1020.71
2019-03-01T02:28:14.178Z,1020.72
2019-03-01T02:28:54.801Z,1020.7
2019-03-01T02:29:35.396Z,1020.69
2019-03-01T02:30:15.999Z,1020.65
2019-03-01T02:30:56.600Z,1020.62
2019-03-01T02:31:37.209Z,1020.6
2019-03-01T02:32:17.811Z,1020.64
2019-03-01T02:32:58.429Z,1020.59
2019-03-01T02:33:39.017Z,1020.56
2019-03-01T02:34:19.598Z,1020.53
2019-03-01T02:35:00.455Z,1020.52
2019-03-01T02:35:40.840Z,1020.51
2019-03-01T02:36:21.469Z,1020.53
2019-03-01T02:37:02.036Z,1020.53
2019-03-01T02:37:42.626Z,1020.52
2019-03-01T02:38:23.221Z,1020.51
2019-03-01T02:39:03.842Z,1020.52
2019-03-01T02:39:44.424Z,1020.49
2019-03-01T02:40:25.017Z,1020.47
2019-03-01T02:41:05.598Z,1020.46
2019-03-01T02:41:46.194Z,1020.47
2019-03-01T02:42:26.780Z,1020.47
2019-03-01T02:43:07.403Z,1020.45
2019-03-01T02:43:48.024Z,1020.45
2019-03-01T02:44:28.624Z,1020.45
2019-03-01T02:45:09.222Z,1020.44
2019-03-01T02:45:49.842Z,1020.41
2019-03-01T02:46:30.420Z,1020.43
2019-03-01T02:47:11.010Z,1020.42
2019-03-01T02:47:51.596Z,1020.44
2019-03-01T02:48:32.201Z,1020.42
2019-03-01T02:49:12.806Z,1020.39
2019-03-01T02:49:53.409Z,1020.42
2019-03-01T02:50:34.006Z,1020.39
2019-03-01T02:51:14.612Z,1020.4
2019-03-01T02:51:55.214Z,1020.39
2019-03-01T02:52:35.802Z,1020.4
2019-03-01T02:53:16.410Z,1020.41
2019-03-01T02:53:57.004Z,1020.4
2019-03-01T02:54:37.601Z,1020.38
2019-03-01T02:55:18.200Z,1020.39
2019-03-01T02:55:58.810Z,1020.39
2019-03-01T02:56:39.409Z,1020.39
2019-03-01T02:57:20.000Z,1020.41
2019-03-01T02:58:00.592Z,1020.42
2019-03-01T02:58:41.185Z,1020.41
2019-03-01T02:59:21.798Z,1020.44
2019-03-01T03:00:02.399Z,1020.45
2019-03-01T03:00:42.995Z,1020.42
2019-03-01T03:01:23.579Z,1020.43
2019-03-01T03:02:04.197Z,1020.43
2019-03-01T03:02:44.794Z,1020.44
2019-03-01T03:03:25.406Z,1020.42
2019-03-01T03:04:05.995Z,1020.42
2019-03-01T03:04:46.596Z,1020.41
2019-03-01T03:05:27.186Z,1020.42
2019-03-01T03:06:07.778Z,1020.42
2019-03-01T03:06:48.355Z,1020.37
2019-03-01T03:07:28.955Z,1020.37
2019-03-01T03:08:09.552Z,1020.39
2019-03-01T03:08:50.154Z,1020.38
2019-03-01T03:09:30.743Z,1020.36
2019-03-01T03:10:11.364Z,1020.39
2019-03-01T03:10:52.004Z,1020.4
2019-03-01T03:11:32.605Z,1020.37
2019-03-01T03:12:13.194Z,1020.36
2019-03-01T03:12:53.824Z,1020.37
2019-03-01T03:13:34.404Z,1020.35
2019-03-01T03:14:15.007Z,1020.33
2019-03-01T03:14:55.601Z,1020.34
2019-03-01T03:15:36.207Z,1020.32
2019-03-01T03:16:16.801Z,1020.34
2019-03-01T03:16:57.372Z,1020.31
2019-03-01T03:17:37.964Z,1020.33
2019-03-01T03:18:18.564Z,1020.34
2019-03-01T03:18:59.169Z,1020.33
2019-03-01T03:19:39.754Z,1020.33
2019-03-01T03:20:20.362Z,1020.34
2019-03-01T03:21:00.953Z,1020.32
2019-03-01T03:21:41.555Z,1020.34
2019-03-01T03:22:22.135Z,1020.38
2019-03-01T03:23:02.726Z,1020.36
2019-03-01T03:23:43.326Z,1020.36
2019-03-01T03:24:23.909Z,1020.36
2019-03-01T03:25:04.496Z,1020.37
2019-03-01T03:25:45.094Z,1020.37
2019-03-01T03:26:25.701Z,1020.37
2019-03-01T03:27:06.299Z,1020.36
2019-03-01T03:27:46.896Z,1020.4
2019-03-01T03:28:27.502Z,1020.36
2019-03-01T03:29:08.100Z,1020.34
2019-03-01T03:29:48.702Z,1020.35
2019-03-01T03:30:29.302Z,1020.4
2019-03-01T03:31:09.895Z,1020.33
2019-03-01T03:31:50.497Z,1020.33
2019-03-01T03:32:31.106Z,1020.34
2019-03-01T03:33:11.849Z,1020.36
2019-03-01T03:33:52.338Z,1020.34
2019-03-01T03:34:32.931Z,1020.32
2019-03-01T03:35:13.551Z,1020.34
2019-03-01T03:35:54.130Z,1020.3
2019-03-01T03:36:34.722Z,1020.32
2019-03-01T03:37:15.339Z,1020.33
2019-03-01T03:37:55.926Z,1020.33
2019-03-01T03:38:36.518Z,1020.3
2019-03-01T03:39:17.129Z,1020.3
2019-03-01T03:39:57.719Z,1020.29
2019-03-01T03:40:38.325Z,1020.3
2019-03-01T03:41:18.923Z,1020.32
2019-03-01T03:41:59.516Z,1020.29
2019-03-01T03:42:40.104Z,1020.3
2019-03-01T03:43:22.651Z,1020.31
2019-03-01T03:44:01.284Z,1020.28
2019-03-01T03:44:41.958Z,1020.26
2019-03-01T03:45:22.577Z,1020.3
2019-03-01T03:46:03.171Z,1020.27
2019-03-01T03:46:43.765Z,1020.25
2019-03-01T03:47:24.397Z,1020.28
2019-03-01T03:48:04.986Z,1020.26
2019-03-01T03:48:45.594Z,1020.26
2019-03-01T03:49:26.200Z,1020.27
2019-03-01T03:50:06.798Z,1020.26
2019-03-01T03:50:47.443Z,1020.27
2019-03-01T03:51:28.134Z,1020.25
2019-03-01T03:52:08.774Z,1020.23
2019-03-01T03:52:49.378Z,1020.24
2019-03-01T03:53:29.977Z,1020.22
2019-03-01T03:54:10.574Z,1020.21
2019-03-01T03:54:51.158Z,1020.19
2019-03-01T03:55:31.763Z,1020.2
2019-03-01T03:56:12.358Z,1020.17
2019-03-01T03:56:52.938Z,1020.16
2019-03-01T03:57:33.559Z,1020.18
2019-03-01T03:58:14.167Z,1020.18
2019-03-01T03:58:54.765Z,1020.17
2019-03-01T03:59:35.353Z,1020.18
2019-03-01T04:00:15.998Z,1020.17
2019-03-01T04:00:56.606Z,1020.17
2019-03-01T04:01:37.219Z,1020.19
2019-03-01T04:02:17.815Z,1020.18
2019-03-01T04:02:58.437Z,1020.17
2019-03-01T04:03:39.029Z,1020.19
2019-03-01T04:04:19.682Z,1020.21
2019-03-01T04:05:00.441Z,1020.2
2019-03-01T04:05:40.957Z,1020.19
2019-03-01T04:06:21.551Z,1020.19
2019-03-01T04:07:02.153Z,1020.2
2019-03-01T04:07:42.760Z,1020.2
2019-03-01T04:08:23.335Z,1020.21
2019-03-01T04:09:03.947Z,1020.22
2019-03-01T04:09:44.561Z,1020.21
2019-03-01T04:10:25.173Z,1020.21
2019-03-01T04:11:05.783Z,1020.17
2019-03-01T04:11:46.424Z,1020.21
2019-03-01T04:12:27.060Z,1020.2
2019-03-01T04:13:07.712Z,1020.2
2019-03-01T04:13:48.325Z,1020.21
2019-03-01T04:14:28.935Z,1020.22
2019-03-01T04:15:09.607Z,1020.24
2019-03-01T04:15:50.149Z,1020.23
2019-03-01T04:16:30.748Z,1020.21
2019-03-01T04:17:11.349Z,1020.25
2019-03-01T04:17:51.935Z,1020.25
2019-03-01T04:18:32.556Z,1020.27
2019-03-01T04:19:13.153Z,1020.27
2019-03-01T04:19:53.748Z,1020.28
2019-03-01T04:20:34.345Z,1020.27
2019-03-01T04:21:14.946Z,1020.29
2019-03-01T04:21:55.542Z,1020.29
2019-03-01T04:22:36.143Z,1020.29
2019-03-01T04:23:16.735Z,1020.3
2019-03-01T04:23:57.321Z,1020.28
2019-03-01T04:24:37.916Z,1020.25
2019-03-01T04:25:18.538Z,1020.24
2019-03-01T04:25:59.145Z,1020.29
2019-03-01T04:26:39.724Z,1020.28
2019-03-01T04:27:20.314Z,1020.28
2019-03-01T04:28:00.909Z,1020.3
2019-03-01T04:28:41.502Z,1020.34
2019-03-01T04:29:22.087Z,1020.29
2019-03-01T04:30:02.685Z,1020.29
2019-03-01T04:30:43.288Z,1020.32
2019-03-01T04:31:23.878Z,1020.33
2019-03-01T04:32:04.482Z,1020.31
2019-03-01T04:32:45.082Z,1020.33
2019-03-01T04:33:25.662Z,1020.34
2019-03-01T04:34:06.254Z,1020.36
2019-03-01T04:34:46.870Z,1020.31
2019-03-01T04:35:27.472Z,1020.35
2019-03-01T04:36:08.073Z,1020.38
2019-03-01T04:36:48.692Z,1020.37
2019-03-01T04:37:29.286Z,1020.36
2019-03-01T04:38:09.908Z,1020.38
2019-03-01T04:38:50.493Z,1020.42
2019-03-01T04:39:31.104Z,1020.42
2019-03-01T04:40:11.689Z,1020.44
2019-03-01T04:40:52.307Z,1020.45
2019-03-01T04:41:32.909Z,1020.48
2019-03-01T04:42:13.509Z,1020.48
2019-03-01T04:42:54.129Z,1020.45
2019-03-01T04:43:34.723Z,1020.45
2019-03-01T04:44:15.329Z,1020.47
2019-03-01T04:44:55.912Z,1020.45
2019-03-01T04:45:36.492Z,1020.43
2019-03-01T04:46:17.097Z,1020.38
2019-03-01T04:46:57.749Z,1020.42
2019-03-01T04:47:38.360Z,1020.41
2019-03-01T04:48:18.971Z,1020.4
2019-03-01T04:48:59.552Z,1020.42
2019-03-01T04:49:40.152Z,1020.4
2019-03-01T04:50:20.742Z,1020.4
2019-03-01T04:51:01.336Z,1020.38
2019-03-01T04:51:41.912Z,1020.37
2019-03-01T04:52:22.500Z,1020.37
2019-03-01T04:53:03.105Z,1020.37
2019-03-01T04:53:43.691Z,1020.37
2019-03-01T04:54:24.317Z,1020.39
2019-03-01T04:55:04.921Z,1020.42
2019-03-01T04:55:45.526Z,1020.38
2019-03-01T04:56:26.165Z,1020.39
2019-03-01T04:57:06.761Z,1020.38
2019-03-01T04:57:47.359Z,1020.42
2019-03-01T04:58:27.958Z,1020.37
2019-03-01T04:59:08.563Z,1020.36
2019-03-01T04:59:49.157Z,1020.41
2019-03-01T05:00:29.757Z,1020.39
2019-03-01T05:01:10.359Z,1020.42
2019-03-01T05:01:50.944Z,1020.41
2019-03-01T05:02:31.534Z,1020.44
2019-03-01T05:03:12.142Z,1020.46
2019-03-01T05:03:52.728Z,1020.46
2019-03-01T05:04:33.318Z,1020.43
2019-03-01T05:05:13.921Z,1020.45
2019-03-01T05:05:54.524Z,1020.45
2019-03-01T05:06:35.114Z,1020.44
2019-03-01T05:07:15.728Z,1020.43
2019-03-01T05:07:56.314Z,1020.42
2019-03-01T05:08:36.909Z,1020.45
2019-03-01T05:09:17.510Z,1020.44
2019-03-01T05:09:58.096Z,1020.43
2019-03-01T05:10:38.695Z,1020.44
2019-03-01T05:11:19.295Z,1020.46
2019-03-01T05:11:59.888Z,1020.42
2019-03-01T05:12:40.480Z,1020.42
2019-03-01T05:13:21.080Z,1020.42
2019-03-01T05:14:01.694Z,1020.46
2019-03-01T05:14:42.301Z,1020.41
2019-03-01T05:15:22.919Z,1020.45
2019-03-01T05:16:03.510Z,1020.46
2019-03-01T05:16:44.097Z,1020.48
2019-03-01T05:17:24.694Z,1020.47
2019-03-01T05:18:05.306Z,1020.48
2019-03-01T05:18:45.903Z,1020.43
2019-03-01T05:19:26.491Z,1020.48
2019-03-01T05:20:07.082Z,1020.46
2019-03-01T05:20:47.687Z,1020.45
2019-03-01T05:21:28.266Z,1020.44
2019-03-01T05:22:08.886Z,1020.45
2019-03-01T05:22:49.467Z,1020.46
2019-03-01T05:23:30.064Z,1020.43
2019-03-01T05:24:10.676Z,1020.44
2019-03-01T05:24:51.296Z,1020.46
2019-03-01T05:25:31.895Z,1020.45
2019-03-01T05:26:12.493Z,1020.47
2019-03-01T05:26:53.095Z,1020.47
2019-03-01T05:27:33.712Z,1020.43
2019-03-01T05:28:14.295Z,1020.45
2019-03-01T05:28:54.877Z,1020.42
2019-03-01T05:29:35.483Z,1020.45
2019-03-01T05:30:16.089Z,1020.44
2019-03-01T05:30:56.690Z,1020.45
2019-03-01T05:31:37.279Z,1020.49
2019-03-01T05:32:17.871Z,1020.52
2019-03-01T05:32:58.476Z,1020.5
2019-03-01T05:33:39.070Z,1020.52
2019-03-01T05:34:19.706Z,1020.53
2019-03-01T05:35:00.351Z,1020.54
2019-03-01T05:35:40.917Z,1020.54
2019-03-01T05:36:21.508Z,1020.55
2019-03-01T05:37:02.097Z,1020.56
2019-03-01T05:37:42.712Z,1020.56
2019-03-01T05:38:23.291Z,1020.52
2019-03-01T05:39:03.885Z,1020.53
2019-03-01T05:39:44.479Z,1020.49
2019-03-01T05:40:25.083Z,1020.52
2019-03-01T05:41:05.679Z,1020.54
2019-03-01T05:41:46.313Z,1020.51
2019-03-01T05:42:26.914Z,1020.53
2019-03-01T05:43:07.480Z,1020.51
2019-03-01T05:43:48.096Z,1020.49
2019-03-01T05:44:28.680Z,1020.51
2019-03-01T05:45:09.273Z,1020.5
2019-03-01T05:45:49.871Z,1020.49
2019-03-01T05:46:30.461Z,1020.51
2019-03-01T05:47:11.067Z,1020.51
2019-03-01T05:47:51.652Z,1020.52
2019-03-01T05:48:32.265Z,1020.49
2019-03-01T05:49:12.852Z,1020.47
2019-03-01T05:49:53.432Z,1020.51
2019-03-01T05:50:34.026Z,1020.54
2019-03-01T05:51:14.627Z,1020.53
2019-03-01T05:51:55.209Z,1020.52
2019-03-01T05:52:35.809Z,1020.54
2019-03-01T05:53:16.409Z,1020.53
2019-03-01T05:53:57.010Z,1020.57
2019-03-01T05:54:37.601Z,1020.56
2019-03-01T05:55:18.199Z,1020.54
2019-03-01T05:55:58.787Z,1020.56
2019-03-01T05:56:39.387Z,1020.52
2019-03-01T05:57:19.993Z,1020.55
2019-03-01T05:58:00.602Z,1020.54
2019-03-01T05:58:41.198Z,1020.53
2019-03-01T05:59:21.795Z,1020.54
2019-03-01T06:00:02.376Z,1020.53
2019-03-01T06:00:42.960Z,1020.48
2019-03-01T06:01:23.569Z,1020.49
2019-03-01T06:02:04.188Z,1020.55
2019-03-01T06:02:44.799Z,1020.56
2019-03-01T06:03:25.404Z,1020.52
2019-03-01T06:04:06.035Z,1020.58
2019-03-01T06:04:46.652Z,1020.56
2019-03-01T06:05:27.239Z,1020.59
2019-03-01T06:06:07.831Z,1020.6
2019-03-01T06:06:48.435Z,1020.62
2019-03-01T06:07:29.013Z,1020.62
2019-03-01T06:08:09.615Z,1020.63
2019-03-01T06:08:50.212Z,1020.61
2019-03-01T06:09:30.795Z,1020.65
2019-03-01T06:10:11.383Z,1020.63
2019-03-01T06:10:51.981Z,1020.63
2019-03-01T06:11:32.595Z,1020.64
2019-03-01T06:12:13.181Z,1020.62
2019-03-01T06:12:53.765Z,1020.65
2019-03-01T06:13:34.353Z,1020.61
2019-03-01T06:14:14.943Z,1020.61
2019-03-01T06:14:55.541Z,1020.56
2019-03-01T06:15:36.133Z,1020.59
2019-03-01T06:16:16.725Z,1020.59
2019-03-01T06:16:57.337Z,1020.57
2019-03-01T06:17:38.009Z,1020.64
2019-03-01T06:18:18.583Z,1020.64
2019-03-01T06:18:59.187Z,1020.65
2019-03-01T06:19:39.781Z,1020.71
2019-03-01T06:20:20.441Z,1020.7
2019-03-01T06:21:01.180Z,1020.75
2019-03-01T06:21:41.770Z,1020.74
2019-03-01T06:22:22.498Z,1020.76
2019-03-01T06:23:03.108Z,1020.76
2019-03-01T06:23:43.705Z,1020.77
2019-03-01T06:24:24.321Z,1020.8
2019-03-01T06:25:04.970Z,1020.81
2019-03-01T06:25:45.621Z,1020.74
2019-03-01T06:26:26.245Z,1020.77
2019-03-01T06:27:06.871Z,1020.75
2019-03-01T06:27:47.460Z,1020.77
2019-03-01T06:28:28.121Z,1020.77
2019-03-01T06:29:08.710Z,1020.75
2019-03-01T06:29:49.299Z,1020.73
2019-03-01T06:30:29.899Z,1020.71
2019-03-01T06:31:10.497Z,1020.72
2019-03-01T06:31:51.117Z,1020.76
2019-03-01T06:32:31.710Z,1020.75
2019-03-01T06:33:12.315Z,1020.79
2019-03-01T06:33:52.902Z,1020.77
2019-03-01T06:34:33.495Z,1020.83
2019-03-01T06:35:14.109Z,1020.8
2019-03-01T06:35:54.713Z,1020.87
2019-03-01T06:36:35.323Z,1020.85
2019-03-01T06:37:15.905Z,1020.85
2019-03-01T06:37:56.487Z,1020.84
2019-03-01T06:38:37.071Z,1020.86
2019-03-01T06:39:17.679Z,1020.8
2019-03-01T06:39:58.285Z,1020.81
2019-03-01T06:40:38.869Z,1020.8
2019-03-01T06:41:19.475Z,1020.79
2019-03-01T06:42:00.074Z,1020.83
2019-03-01T06:42:40.652Z,1020.84
2019-03-01T06:43:21.266Z,1020.82
2019-03-01T06:44:01.849Z,1020.8
2019-03-01T06:44:42.445Z,1020.8
2019-03-01T06:45:23.045Z,1020.8
2019-03-01T06:46:03.647Z,1020.83
2019-03-01T06:46:44.254Z,1020.82
2019-03-01T06:47:24.858Z,1020.82
2019-03-01T06:48:05.461Z,1020.83
2019-03-01T06:48:46.052Z,1020.84
2019-03-01T06:49:26.652Z,1020.84
2019-03-01T06:50:07.273Z,1020.85
2019-03-01T06:50:47.871Z,1020.85
2019-03-01T06:51:29.224Z,1020.84
2019-03-01T06:52:09.075Z,1020.85
2019-03-01T06:52:49.687Z,1020.87
2019-03-01T06:53:30.275Z,1020.89
2019-03-01T06:54:10.872Z,1020.87
2019-03-01T06:54:51.466Z,1020.9
2019-03-01T06:55:32.055Z,1020.89
2019-03-01T06:56:12.650Z,1020.88
2019-03-01T06:56:53.233Z,1020.89
2019-03-01T06:57:33.819Z,1020.9
2019-03-01T06:58:14.463Z,1020.87
2019-03-01T06:58:55.368Z,1020.87
2019-03-01T06:59:36.003Z,1020.91
2019-03-01T07:00:16.589Z,1020.87
2019-03-01T07:00:57.183Z,1020.87
2019-03-01T07:01:37.768Z,1020.89
2019-03-01T07:02:18.371Z,1020.88
2019-03-01T07:02:58.967Z,1020.87
2019-03-01T07:03:39.571Z,1020.86
2019-03-01T07:04:20.191Z,1020.89
2019-03-01T07:05:00.797Z,1020.9
2019-03-01T07:05:41.377Z,1020.89
2019-03-01T07:06:21.968Z,1020.88
2019-03-01T07:07:02.573Z,1020.88
2019-03-01T07:07:43.185Z,1020.87
2019-03-01T07:08:23.781Z,1020.9
2019-03-01T07:09:04.446Z,1020.92
2019-03-01T07:09:45.010Z,1020.91
2019-03-01T07:10:25.599Z,1020.93
2019-03-01T07:11:06.196Z,1020.97
2019-03-01T07:11:46.789Z,1021.02
2019-03-01T07:12:27.387Z,1021.01
2019-03-01T07:13:07.989Z,1021.03
2019-03-01T07:13:48.575Z,1021.02
2019-03-01T07:14:29.189Z,1021.03
2019-03-01T07:15:09.780Z,1021.05
2019-03-01T07:15:50.415Z,1021.03
2019-03-01T07:16:30.995Z,1021.06
2019-03-01T07:17:11.601Z,1021.08
2019-03-01T07:17:52.198Z,1021.09
2019-03-01T07:18:32.783Z,1021.11
2019-03-01T07:19:13.407Z,1021.1
2019-03-01T07:19:53.982Z,1021.08
2019-03-01T07:20:34.593Z,1021.11
2019-03-01T07:21:15.214Z,1021.05
2019-03-01T07:21:55.808Z,1021.08
2019-03-01T07:22:36.407Z,1021.12
2019-03-01T07:23:17.011Z,1021.1
2019-03-01T07:23:57.614Z,1021.18
2019-03-01T07:24:38.203Z,1021.16
2019-03-01T07:25:18.793Z,1021.17
2019-03-01T07:25:59.379Z,1021.17
2019-03-01T07:26:39.975Z,1021.14
2019-03-01T07:27:20.559Z,1021.17
2019-03-01T07:28:01.153Z,1021.15
2019-03-01T07:28:41.749Z,1021.15
2019-03-01T07:29:22.333Z,1021.15
2019-03-01T07:30:02.975Z,1021.15
2019-03-01T07:30:43.579Z,1021.13
2019-03-01T07:31:24.231Z,1021.14
2019-03-01T07:32:04.835Z,1021.14
2019-03-01T07:32:45.429Z,1021.11
2019-03-01T07:33:26.025Z,1021.12
2019-03-01T07:34:06.601Z,1021.1
2019-03-01T07:34:47.194Z,1021.11
2019-03-01T07:35:27.782Z,1021.14
2019-03-01T07:36:08.393Z,1021.13
2019-03-01T07:36:49.003Z,1021.1
2019-03-01T07:37:29.605Z,1021.13
2019-03-01T07:38:10.199Z,1021.12
2019-03-01T07:38:50.791Z,1021.14
2019-03-01T07:39:31.385Z,1021.12
2019-03-01T07:40:11.975Z,1021.11
2019-03-01T07:40:52.584Z,1021.12
2019-03-01T07:41:33.177Z,1021.14
2019-03-01T07:42:13.752Z,1021.14
2019-03-01T07:42:54.357Z,1021.14
2019-03-01T07:43:34.983Z,1021.16
2019-03-01T07:44:15.617Z,1021.15
2019-03-01T07:44:56.215Z,1021.14
2019-03-01T07:45:36.806Z,1021.14
2019-03-01T07:46:17.418Z,1021.17
2019-03-01T07:46:58.008Z,1021.12
2019-03-01T07:47:38.623Z,1021.1
2019-03-01T07:48:19.227Z,1021.13
2019-03-01T07:48:59.842Z,1021.18
2019-03-01T07:49:40.421Z,1021.17
2019-03-01T07:50:21.022Z,1021.17
2019-03-01T07:51:02.378Z,1021.19
2019-03-01T07:51:42.248Z,1021.22
2019-03-01T07:52:22.840Z,1021.24
2019-03-01T07:53:04.577Z,1021.24
2019-03-01T07:53:44.044Z,1021.21
2019-03-01T07:54:24.647Z,1021.2
2019-03-01T07:55:05.241Z,1021.2
2019-03-01T07:55:46.596Z,1021.24
2019-03-01T07:56:26.428Z,1021.23
2019-03-01T07:57:07.033Z,1021.24
2019-03-01T07:57:49.691Z,1021.19
2019-03-01T07:58:28.220Z,1021.21
2019-03-01T07:59:08.812Z,1021.2
2019-03-01T07:59:49.404Z,1021.2
2019-03-01T08:00:30.039Z,1021.23
2019-03-01T08:01:10.707Z,1021.21
2019-03-01T08:01:51.342Z,1021.25
2019-03-01T08:02:31.934Z,1021.23
2019-03-01T08:03:15.105Z,1021.25
2019-03-01T08:03:53.269Z,1021.25
2019-03-01T08:04:33.796Z,1021.29
2019-03-01T08:05:16.197Z,1021.3
2019-03-01T08:05:54.967Z,1021.27
2019-03-01T08:06:35.583Z,1021.3
2019-03-01T08:07:16.172Z,1021.29
2019-03-01T08:08:02.289Z,1021.27
2019-03-01T08:08:38.758Z,1021.27
2019-03-01T08:09:17.980Z,1021.29
2019-03-01T08:09:58.599Z,1021.27
2019-03-01T08:10:39.208Z,1021.26
2019-03-01T08:11:19.835Z,1021.3
2019-03-01T08:12:03.554Z,1021.27
2019-03-01T08:12:42.330Z,1021.26
2019-03-01T08:13:21.655Z,1021.28
2019-03-01T08:14:02.245Z,1021.24
2019-03-01T08:14:42.853Z,1021.26